sensor_id;sensor_type;location;lat;lon;timestamp;pressure;altitude;pressure_sealevel;temperature;humidity
30819;BME280;17546;42.674;23.284;2022-12-08T00:03:32;94544.88;;;13.12;46.76
30819;BME280;17546;42.674;23.284;2022-12-08T00:05:57;94548.16;;;13.11;46.80
30819;BME280;17546;42.674;23.284;2022-12-08T00:08:41;94557.56;;;13.08;46.83
30819;BME280;17546;42.674;23.284;2022-12-08T00:11:25;94563.03;;;13.13;46.37
30819;BME280;17546;42.674;23.284;2022-12-08T00:13:50;94559.41;;;12.94;46.83
30819;BME280;17546;42.674;23.284;2022-12-08T00:16:16;94567.22;;;12.95;46.96
30819;BME280;17546;42.674;23.284;2022-12-08T00:18:41;94583.34;;;13.02;47.03
30819;BME280;17546;42.674;23.284;2022-12-08T00:21:07;94568.97;;;12.98;47.08
30819;BME280;17546;42.674;23.284;2022-12-08T00:23:32;94569.78;;;12.93;47.26
30819;BME280;17546;42.674;23.284;2022-12-08T00:26:04;94577.63;;;12.89;47.24
30819;BME280;17546;42.674;23.284;2022-12-08T00:28:31;94572.88;;;12.84;47.54
30819;BME280;17546;42.674;23.284;2022-12-08T00:30:56;94590.84;;;12.77;47.72
30819;BME280;17546;42.674;23.284;2022-12-08T00:33:22;94588.50;;;12.93;47.28
30819;BME280;17546;42.674;23.284;2022-12-08T00:35:47;94577.78;;;13.02;47.05
30819;BME280;17546;42.674;23.284;2022-12-08T00:38:12;94582.56;;;13.08;46.94
30819;BME280;17546;42.674;23.284;2022-12-08T00:40:43;94580.31;;;13.06;47.02
30819;BME280;17546;42.674;23.284;2022-12-08T00:43:08;94599.53;;;13.04;47.25
30819;BME280;17546;42.674;23.284;2022-12-08T00:45:34;94594.94;;;13.12;46.81
30819;BME280;17546;42.674;23.284;2022-12-08T00:47:59;94585.88;;;13.06;46.89
30819;BME280;17546;42.674;23.284;2022-12-08T00:50:24;94585.13;;;13.06;46.85
30819;BME280;17546;42.674;23.284;2022-12-08T00:52:50;94588.81;;;13.14;46.54
30819;BME280;17546;42.674;23.284;2022-12-08T00:55:15;94594.63;;;13.16;46.59
30819;BME280;17546;42.674;23.284;2022-12-08T00:57:40;94583.97;;;13.20;46.48
30819;BME280;17546;42.674;23.284;2022-12-08T01:00:06;94574.38;;;13.21;46.50
30819;BME280;17546;42.674;23.284;2022-12-08T01:02:33;94573.34;;;13.24;46.35
30819;BME280;17546;42.674;23.284;2022-12-08T01:04:59;94574.06;;;13.24;46.20
30819;BME280;17546;42.674;23.284;2022-12-08T01:07:26;94573.91;;;13.17;46.45
30819;BME280;17546;42.674;23.284;2022-12-08T01:09:52;94572.84;;;13.20;46.46
30819;BME280;17546;42.674;23.284;2022-12-08T01:12:17;94574.63;;;13.23;46.43
30819;BME280;17546;42.674;23.284;2022-12-08T01:14:43;94581.16;;;13.26;46.29
30819;BME280;17546;42.674;23.284;2022-12-08T01:17:08;94576.91;;;13.19;46.43
30819;BME280;17546;42.674;23.284;2022-12-08T01:19:33;94573.34;;;13.24;46.45
30819;BME280;17546;42.674;23.284;2022-12-08T01:21:59;94579.16;;;13.20;46.32
30819;BME280;17546;42.674;23.284;2022-12-08T01:24:24;94577.41;;;13.23;46.22
30819;BME280;17546;42.674;23.284;2022-12-08T01:26:50;94582.97;;;13.23;46.42
30819;BME280;17546;42.674;23.284;2022-12-08T01:29:15;94574.84;;;13.25;45.97
30819;BME280;17546;42.674;23.284;2022-12-08T01:31:41;94570.16;;;13.09;46.50
30819;BME280;17546;42.674;23.284;2022-12-08T01:34:07;94571.56;;;12.91;46.77
30819;BME280;17546;42.674;23.284;2022-12-08T01:36:41;94568.44;;;13.06;46.70
30819;BME280;17546;42.674;23.284;2022-12-08T01:39:13;94562.38;;;13.01;46.81
30819;BME280;17546;42.674;23.284;2022-12-08T01:41:38;94567.44;;;13.03;46.49
30819;BME280;17546;42.674;23.284;2022-12-08T01:46:34;94552.81;;;12.97;46.53
30819;BME280;17546;42.674;23.284;2022-12-08T01:49:10;94551.59;;;12.92;46.66
30819;BME280;17546;42.674;23.284;2022-12-08T01:51:43;94540.72;;;12.94;46.73
30819;BME280;17546;42.674;23.284;2022-12-08T01:54:11;94546.81;;;12.87;46.84
30819;BME280;17546;42.674;23.284;2022-12-08T01:57:04;94546.44;;;13.08;46.42
30819;BME280;17546;42.674;23.284;2022-12-08T01:59:34;94549.22;;;13.08;46.25
30819;BME280;17546;42.674;23.284;2022-12-08T02:02:01;94539.41;;;13.01;46.26
30819;BME280;17546;42.674;23.284;2022-12-08T02:04:27;94545.97;;;12.98;46.23
30819;BME280;17546;42.674;23.284;2022-12-08T02:06:52;94542.44;;;12.97;46.22
30819;BME280;17546;42.674;23.284;2022-12-08T02:09:19;94552.28;;;12.98;46.20
30819;BME280;17546;42.674;23.284;2022-12-08T02:11:45;94551.75;;;13.06;46.15
30819;BME280;17546;42.674;23.284;2022-12-08T02:14:11;94547.69;;;13.07;45.91
30819;BME280;17546;42.674;23.284;2022-12-08T02:22:03;94538.22;;;12.85;46.18
30819;BME280;17546;42.674;23.284;2022-12-08T02:25:02;94531.16;;;12.90;45.80
30819;BME280;17546;42.674;23.284;2022-12-08T02:30:22;94553.16;;;12.88;45.59
30819;BME280;17546;42.674;23.284;2022-12-08T02:35:55;94537.63;;;12.20;46.98
30819;BME280;17546;42.674;23.284;2022-12-08T02:47:05;94529.72;;;11.77;48.75
30819;BME280;17546;42.674;23.284;2022-12-08T02:49:33;94538.50;;;11.93;48.04
30819;BME280;17546;42.674;23.284;2022-12-08T02:54:30;94536.19;;;12.08;48.15
30819;BME280;17546;42.674;23.284;2022-12-08T03:05:07;94533.59;;;12.22;47.52
30819;BME280;17546;42.674;23.284;2022-12-08T03:07:35;94527.78;;;12.19;47.40
30819;BME280;17546;42.674;23.284;2022-12-08T03:10:44;94536.06;;;12.31;47.15
30819;BME280;17546;42.674;23.284;2022-12-08T03:15:37;94533.03;;;12.29;46.77
30819;BME280;17546;42.674;23.284;2022-12-08T03:18:04;94516.50;;;12.01;47.41
30819;BME280;17546;42.674;23.284;2022-12-08T03:20:33;94526.09;;;12.05;47.50
30819;BME280;17546;42.674;23.284;2022-12-08T03:23:01;94524.78;;;12.17;46.99
30819;BME280;17546;42.674;23.284;2022-12-08T03:25:31;94521.19;;;12.28;46.63
30819;BME280;17546;42.674;23.284;2022-12-08T03:27:58;94523.00;;;12.14;46.82
30819;BME280;17546;42.674;23.284;2022-12-08T03:30:25;94527.56;;;12.17;46.72
30819;BME280;17546;42.674;23.284;2022-12-08T03:35:38;94532.19;;;11.92;47.16
30819;BME280;17546;42.674;23.284;2022-12-08T03:38:10;94527.22;;;11.63;48.07
30819;BME280;17546;42.674;23.284;2022-12-08T03:40:37;94528.41;;;11.90;47.49
30819;BME280;17546;42.674;23.284;2022-12-08T03:43:03;94526.63;;;11.98;47.19
30819;BME280;17546;42.674;23.284;2022-12-08T03:45:28;94533.72;;;11.93;47.41
30819;BME280;17546;42.674;23.284;2022-12-08T03:47:54;94534.34;;;12.16;46.60
30819;BME280;17546;42.674;23.284;2022-12-08T03:50:20;94530.56;;;12.19;46.81
30819;BME280;17546;42.674;23.284;2022-12-08T03:52:45;94535.56;;;12.27;46.70
30819;BME280;17546;42.674;23.284;2022-12-08T03:55:11;94530.72;;;12.38;46.58
30819;BME280;17546;42.674;23.284;2022-12-08T03:57:36;94541.50;;;12.53;46.18
30819;BME280;17546;42.674;23.284;2022-12-08T04:00:04;94535.69;;;12.51;46.05
30819;BME280;17546;42.674;23.284;2022-12-08T04:02:30;94542.38;;;12.31;46.35
30819;BME280;17546;42.674;23.284;2022-12-08T04:04:56;94543.66;;;12.25;46.48
30819;BME280;17546;42.674;23.284;2022-12-08T04:07:21;94539.16;;;12.10;46.61
30819;BME280;17546;42.674;23.284;2022-12-08T04:09:46;94543.22;;;12.09;46.77
30819;BME280;17546;42.674;23.284;2022-12-08T04:12:12;94549.97;;;12.25;46.45
30819;BME280;17546;42.674;23.284;2022-12-08T04:14:37;94545.22;;;12.14;46.66
30819;BME280;17546;42.674;23.284;2022-12-08T04:17:03;94558.34;;;12.14;46.82
30819;BME280;17546;42.674;23.284;2022-12-08T04:19:28;94550.00;;;12.19;46.82
30819;BME280;17546;42.674;23.284;2022-12-08T04:21:54;94549.75;;;12.17;46.78
30819;BME280;17546;42.674;23.284;2022-12-08T04:24:19;94544.72;;;12.10;46.69
30819;BME280;17546;42.674;23.284;2022-12-08T04:26:45;94541.19;;;12.10;47.03
30819;BME280;17546;42.674;23.284;2022-12-08T04:29:10;94543.28;;;11.98;47.58
30819;BME280;17546;42.674;23.284;2022-12-08T04:31:36;94545.00;;;12.07;47.53
30819;BME280;17546;42.674;23.284;2022-12-08T04:34:02;94541.00;;;11.96;47.69
30819;BME280;17546;42.674;23.284;2022-12-08T04:36:28;94546.47;;;12.19;47.20
30819;BME280;17546;42.674;23.284;2022-12-08T04:38:53;94557.06;;;12.20;47.56
30819;BME280;17546;42.674;23.284;2022-12-08T04:41:18;94550.69;;;12.31;47.37
30819;BME280;17546;42.674;23.284;2022-12-08T04:43:44;94547.41;;;12.33;47.43
30819;BME280;17546;42.674;23.284;2022-12-08T04:46:09;94540.59;;;12.34;47.30
30819;BME280;17546;42.674;23.284;2022-12-08T04:48:36;94550.88;;;12.50;47.10
30819;BME280;17546;42.674;23.284;2022-12-08T04:51:02;94539.59;;;12.26;47.52
30819;BME280;17546;42.674;23.284;2022-12-08T04:53:27;94544.16;;;12.29;47.46
30819;BME280;17546;42.674;23.284;2022-12-08T04:55:53;94558.22;;;12.42;46.95
30819;BME280;17546;42.674;23.284;2022-12-08T04:58:19;94561.25;;;12.44;47.26
30819;BME280;17546;42.674;23.284;2022-12-08T05:00:44;94559.97;;;12.45;47.30
30819;BME280;17546;42.674;23.284;2022-12-08T05:03:10;94553.09;;;12.57;47.05
30819;BME280;17546;42.674;23.284;2022-12-08T05:05:36;94552.28;;;12.63;47.02
30819;BME280;17546;42.674;23.284;2022-12-08T05:08:02;94557.84;;;12.63;47.09
30819;BME280;17546;42.674;23.284;2022-12-08T05:10:27;94569.75;;;12.57;47.02
30819;BME280;17546;42.674;23.284;2022-12-08T05:12:53;94571.00;;;12.62;47.23
30819;BME280;17546;42.674;23.284;2022-12-08T05:15:18;94563.97;;;12.55;46.96
30819;BME280;17546;42.674;23.284;2022-12-08T05:17:44;94571.19;;;12.70;46.75
30819;BME280;17546;42.674;23.284;2022-12-08T05:20:10;94568.28;;;12.45;47.07
30819;BME280;17546;42.674;23.284;2022-12-08T05:22:35;94559.13;;;12.61;46.97
30819;BME280;17546;42.674;23.284;2022-12-08T05:25:01;94564.19;;;12.57;47.08
30819;BME280;17546;42.674;23.284;2022-12-08T05:27:26;94583.34;;;12.67;46.92
30819;BME280;17546;42.674;23.284;2022-12-08T05:29:53;94577.22;;;12.74;46.82
30819;BME280;17546;42.674;23.284;2022-12-08T05:32:19;94578.78;;;12.69;46.84
30819;BME280;17546;42.674;23.284;2022-12-08T05:34:44;94588.91;;;12.67;46.76
30819;BME280;17546;42.674;23.284;2022-12-08T05:37:10;94590.63;;;12.70;46.81
30819;BME280;17546;42.674;23.284;2022-12-08T05:39:35;94591.97;;;12.05;47.59
30819;BME280;17546;42.674;23.284;2022-12-08T05:42:01;94586.00;;;12.36;46.89
30819;BME280;17546;42.674;23.284;2022-12-08T05:44:26;94582.69;;;12.49;46.43
30819;BME280;17546;42.674;23.284;2022-12-08T05:46:52;94595.56;;;12.52;46.45
30819;BME280;17546;42.674;23.284;2022-12-08T05:49:17;94594.28;;;12.53;46.59
30819;BME280;17546;42.674;23.284;2022-12-08T05:51:43;94596.06;;;12.51;46.54
30819;BME280;17546;42.674;23.284;2022-12-08T05:54:08;94593.03;;;12.49;46.45
30819;BME280;17546;42.674;23.284;2022-12-08T05:56:34;94589.75;;;12.50;46.48
30819;BME280;17546;42.674;23.284;2022-12-08T05:59:00;94594.78;;;12.52;46.50
30819;BME280;17546;42.674;23.284;2022-12-08T06:01:30;94603.16;;;12.46;46.49
30819;BME280;17546;42.674;23.284;2022-12-08T06:04:00;94603.41;;;12.43;46.52
30819;BME280;17546;42.674;23.284;2022-12-08T06:06:26;94599.91;;;12.42;46.48
30819;BME280;17546;42.674;23.284;2022-12-08T06:08:51;94611.78;;;12.37;46.74
30819;BME280;17546;42.674;23.284;2022-12-08T06:11:23;94614.88;;;12.16;46.83
30819;BME280;17546;42.674;23.284;2022-12-08T06:13:49;94616.16;;;12.10;47.19
30819;BME280;17546;42.674;23.284;2022-12-08T06:16:15;94612.34;;;12.18;47.16
30819;BME280;17546;42.674;23.284;2022-12-08T06:18:41;94609.63;;;12.13;47.27
30819;BME280;17546;42.674;23.284;2022-12-08T06:21:09;94616.66;;;12.19;47.22
30819;BME280;17546;42.674;23.284;2022-12-08T06:23:35;94613.38;;;12.15;47.06
30819;BME280;17546;42.674;23.284;2022-12-08T06:26:09;94608.59;;;12.16;47.09
30819;BME280;17546;42.674;23.284;2022-12-08T06:28:35;94616.72;;;11.80;47.97
30819;BME280;17546;42.674;23.284;2022-12-08T06:31:06;94613.44;;;11.82;48.01
30819;BME280;17546;42.674;23.284;2022-12-08T06:33:32;94606.88;;;11.96;47.64
30819;BME280;17546;42.674;23.284;2022-12-08T06:35:58;94608.88;;;12.01;47.56
30819;BME280;17546;42.674;23.284;2022-12-08T06:38:23;94608.59;;;12.10;47.69
30819;BME280;17546;42.674;23.284;2022-12-08T06:40:55;94605.31;;;12.17;47.47
30819;BME280;17546;42.674;23.284;2022-12-08T06:43:21;94613.59;;;12.23;47.36
30819;BME280;17546;42.674;23.284;2022-12-08T06:45:47;94607.78;;;12.27;47.44
30819;BME280;17546;42.674;23.284;2022-12-08T06:48:12;94604.47;;;12.34;47.20
30819;BME280;17546;42.674;23.284;2022-12-08T06:50:38;94592.38;;;12.31;47.16
30819;BME280;17546;42.674;23.284;2022-12-08T06:53:03;94599.16;;;12.36;47.16
30819;BME280;17546;42.674;23.284;2022-12-08T06:55:29;94603.41;;;12.43;47.09
30819;BME280;17546;42.674;23.284;2022-12-08T06:57:54;94606.94;;;12.43;47.37
30819;BME280;17546;42.674;23.284;2022-12-08T07:00:20;94599.84;;;12.48;47.12
30819;BME280;17546;42.674;23.284;2022-12-08T07:02:45;94602.69;;;12.36;47.40
30819;BME280;17546;42.674;23.284;2022-12-08T07:05:10;94608.91;;;12.54;47.15
30819;BME280;17546;42.674;23.284;2022-12-08T07:07:36;94623.28;;;12.64;47.05
30819;BME280;17546;42.674;23.284;2022-12-08T07:10:01;94636.16;;;12.67;46.94
30819;BME280;17546;42.674;23.284;2022-12-08T07:12:27;94625.63;;;12.48;47.20
30819;BME280;17546;42.674;23.284;2022-12-08T07:14:52;94618.53;;;12.53;46.78
30819;BME280;17546;42.674;23.284;2022-12-08T07:17:18;94630.41;;;12.53;47.24
30819;BME280;17546;42.674;23.284;2022-12-08T07:19:43;94635.84;;;12.76;46.71
30819;BME280;17546;42.674;23.284;2022-12-08T07:22:09;94624.91;;;12.42;47.35
30819;BME280;17546;42.674;23.284;2022-12-08T07:24:34;94628.88;;;11.49;49.38
30819;BME280;17546;42.674;23.284;2022-12-08T07:26:59;94658.38;;;11.91;48.99
30819;BME280;17546;42.674;23.284;2022-12-08T07:29:25;94651.00;;;12.05;48.74
30819;BME280;17546;42.674;23.284;2022-12-08T07:31:50;94660.06;;;12.23;48.17
30819;BME280;17546;42.674;23.284;2022-12-08T07:34:15;94656.59;;;11.83;49.43
30819;BME280;17546;42.674;23.284;2022-12-08T07:36:41;94653.06;;;11.82;49.35
30819;BME280;17546;42.674;23.284;2022-12-08T07:39:06;94665.66;;;11.83;49.68
30819;BME280;17546;42.674;23.284;2022-12-08T07:41:32;94654.81;;;12.02;49.21
30819;BME280;17546;42.674;23.284;2022-12-08T07:43:57;94657.78;;;12.27;48.77
30819;BME280;17546;42.674;23.284;2022-12-08T07:46:24;94651.13;;;12.47;48.56
30819;BME280;17546;42.674;23.284;2022-12-08T07:48:51;94655.41;;;12.53;48.50
30819;BME280;17546;42.674;23.284;2022-12-08T07:51:17;94653.84;;;12.64;48.23
30819;BME280;17546;42.674;23.284;2022-12-08T07:53:45;94656.84;;;12.71;47.93
30819;BME280;17546;42.674;23.284;2022-12-08T07:56:12;94655.03;;;12.74;47.80
30819;BME280;17546;42.674;23.284;2022-12-08T07:58:38;94645.88;;;12.90;47.71
30819;BME280;17546;42.674;23.284;2022-12-08T08:01:04;94647.63;;;12.93;47.62
30819;BME280;17546;42.674;23.284;2022-12-08T08:03:29;94651.63;;;12.98;47.56
30819;BME280;17546;42.674;23.284;2022-12-08T08:06:01;94645.09;;;12.95;47.67
30819;BME280;17546;42.674;23.284;2022-12-08T08:08:27;94647.75;;;12.65;48.03
30819;BME280;17546;42.674;23.284;2022-12-08T08:10:52;94646.50;;;12.66;48.26
30819;BME280;17546;42.674;23.284;2022-12-08T08:13:18;94641.56;;;12.89;47.77
30819;BME280;17546;42.674;23.284;2022-12-08T08:15:43;94648.16;;;12.86;47.82
30819;BME280;17546;42.674;23.284;2022-12-08T08:18:08;94641.03;;;12.96;47.88
30819;BME280;17546;42.674;23.284;2022-12-08T08:20:34;94649.03;;;13.11;47.71
30819;BME280;17546;42.674;23.284;2022-12-08T08:22:59;94649.19;;;12.83;48.09
30819;BME280;17546;42.674;23.284;2022-12-08T08:25:25;94664.00;;;13.02;47.63
30819;BME280;17546;42.674;23.284;2022-12-08T08:27:50;94659.72;;;12.96;47.90
30819;BME280;17546;42.674;23.284;2022-12-08T08:30:18;94659.81;;;13.20;47.57
30819;BME280;17546;42.674;23.284;2022-12-08T08:32:43;94659.47;;;13.41;47.20
30819;BME280;17546;42.674;23.284;2022-12-08T08:35:09;94656.63;;;13.47;47.18
30819;BME280;17546;42.674;23.284;2022-12-08T08:37:34;94653.81;;;13.52;46.99
30819;BME280;17546;42.674;23.284;2022-12-08T08:40:00;94646.47;;;13.55;47.06
30819;BME280;17546;42.674;23.284;2022-12-08T08:42:25;94649.00;;;13.53;46.87
30819;BME280;17546;42.674;23.284;2022-12-08T08:44:51;94651.34;;;13.73;46.80
30819;BME280;17546;42.674;23.284;2022-12-08T08:47:16;94649.44;;;13.62;46.64
30819;BME280;17546;42.674;23.284;2022-12-08T08:49:42;94645.63;;;13.66;46.49
30819;BME280;17546;42.674;23.284;2022-12-08T08:52:07;94650.50;;;13.84;46.19
30819;BME280;17546;42.674;23.284;2022-12-08T08:54:32;94642.00;;;13.71;46.35
30819;BME280;17546;42.674;23.284;2022-12-08T08:57:00;94644.66;;;13.57;46.75
30819;BME280;17546;42.674;23.284;2022-12-08T08:59:26;94639.19;;;13.76;46.58
30819;BME280;17546;42.674;23.284;2022-12-08T09:01:53;94630.72;;;13.88;46.45
30819;BME280;17546;42.674;23.284;2022-12-08T09:04:20;94640.94;;;14.04;46.06
30819;BME280;17546;42.674;23.284;2022-12-08T09:06:46;94633.34;;;14.04;46.26
30819;BME280;17546;42.674;23.284;2022-12-08T09:09:13;94639.56;;;14.16;46.14
30819;BME280;17546;42.674;23.284;2022-12-08T09:11:39;94626.69;;;14.13;46.04
30819;BME280;17546;42.674;23.284;2022-12-08T09:14:04;94623.13;;;14.13;46.12
30819;BME280;17546;42.674;23.284;2022-12-08T09:16:30;94620.94;;;14.05;46.04
30819;BME280;17546;42.674;23.284;2022-12-08T09:18:55;94631.09;;;14.03;46.21
30819;BME280;17546;42.674;23.284;2022-12-08T09:21:23;94619.22;;;14.21;46.04
30819;BME280;17546;42.674;23.284;2022-12-08T09:23:52;94621.53;;;14.42;45.95
30819;BME280;17546;42.674;23.284;2022-12-08T09:26:18;94619.66;;;14.50;46.15
30819;BME280;17546;42.674;23.284;2022-12-08T09:28:47;94623.50;;;14.47;46.33
30819;BME280;17546;42.674;23.284;2022-12-08T09:31:14;94621.97;;;14.46;46.20
30819;BME280;17546;42.674;23.284;2022-12-08T09:33:41;94620.75;;;14.66;45.62
30819;BME280;17546;42.674;23.284;2022-12-08T09:36:08;94615.63;;;14.70;45.22
30819;BME280;17546;42.674;23.284;2022-12-08T09:38:33;94612.03;;;14.51;45.71
30819;BME280;17546;42.674;23.284;2022-12-08T09:41:01;94613.59;;;14.90;45.18
30819;BME280;17546;42.674;23.284;2022-12-08T09:43:51;94613.94;;;15.18;44.67
30819;BME280;17546;42.674;23.284;2022-12-08T09:46:19;94611.13;;;15.18;44.23
30819;BME280;17546;42.674;23.284;2022-12-08T09:48:51;94607.94;;;15.27;44.73
30819;BME280;17546;42.674;23.284;2022-12-08T09:51:22;94604.22;;;15.38;44.91
30819;BME280;17546;42.674;23.284;2022-12-08T09:54:10;94600.03;;;15.64;44.32
30819;BME280;17546;42.674;23.284;2022-12-08T09:56:40;94592.44;;;15.45;44.02
30819;BME280;17546;42.674;23.284;2022-12-08T09:59:32;94593.03;;;15.57;43.71
30819;BME280;17546;42.674;23.284;2022-12-08T10:01:59;94575.13;;;15.34;43.98
30819;BME280;17546;42.674;23.284;2022-12-08T10:04:28;94584.91;;;15.73;44.17
30819;BME280;17546;42.674;23.284;2022-12-08T10:07:02;94578.41;;;15.97;43.69
30819;BME280;17546;42.674;23.284;2022-12-08T10:12:30;94563.13;;;16.24;42.50
30819;BME280;17546;42.674;23.284;2022-12-08T10:17:51;94567.19;;;16.50;42.29
30819;BME280;17546;42.674;23.284;2022-12-08T10:20:35;94551.63;;;16.28;41.89
30819;BME280;17546;42.674;23.284;2022-12-08T10:25:35;94552.69;;;16.86;41.54
30819;BME280;17546;42.674;23.284;2022-12-08T10:28:03;94542.75;;;16.98;41.55
30819;BME280;17546;42.674;23.284;2022-12-08T10:30:30;94552.06;;;16.80;41.09
30819;BME280;17546;42.674;23.284;2022-12-08T10:32:56;94552.84;;;17.01;41.08
30819;BME280;17546;42.674;23.284;2022-12-08T10:35:22;94550.03;;;16.80;41.13
30819;BME280;17546;42.674;23.284;2022-12-08T10:37:57;94545.34;;;16.96;40.68
30819;BME280;17546;42.674;23.284;2022-12-08T10:40:26;94547.75;;;17.13;40.85
30819;BME280;17546;42.674;23.284;2022-12-08T10:42:56;94542.50;;;17.09;40.68
30819;BME280;17546;42.674;23.284;2022-12-08T10:45:29;94539.06;;;17.45;40.60
30819;BME280;17546;42.674;23.284;2022-12-08T10:48:03;94535.38;;;17.50;40.51
30819;BME280;17546;42.674;23.284;2022-12-08T10:55:23;94522.47;;;16.84;40.68
30819;BME280;17546;42.674;23.284;2022-12-08T10:57:49;94526.50;;;16.97;40.75
30819;BME280;17546;42.674;23.284;2022-12-08T11:00:17;94520.41;;;17.48;39.64
30819;BME280;17546;42.674;23.284;2022-12-08T11:03:03;94519.56;;;17.32;39.77
30819;BME280;17546;42.674;23.284;2022-12-08T11:05:33;94516.78;;;17.61;39.38
30819;BME280;17546;42.674;23.284;2022-12-08T11:08:00;94514.63;;;17.74;39.10
30819;BME280;17546;42.674;23.284;2022-12-08T11:10:33;94513.69;;;16.80;40.71
30819;BME280;17546;42.674;23.284;2022-12-08T11:13:05;94511.56;;;17.36;39.72
30819;BME280;17546;42.674;23.284;2022-12-08T11:15:34;94496.13;;;17.22;40.01
30819;BME280;17546;42.674;23.284;2022-12-08T11:18:08;94492.09;;;17.30;39.75
30819;BME280;17546;42.674;23.284;2022-12-08T11:20:39;94491.88;;;17.49;39.62
30819;BME280;17546;42.674;23.284;2022-12-08T11:23:18;94483.69;;;17.80;39.22
30819;BME280;17546;42.674;23.284;2022-12-08T11:25:44;94477.88;;;17.49;39.76
30819;BME280;17546;42.674;23.284;2022-12-08T11:28:09;94479.63;;;16.55;41.07
30819;BME280;17546;42.674;23.284;2022-12-08T11:30:43;94476.03;;;16.68;40.99
30819;BME280;17546;42.674;23.284;2022-12-08T11:33:18;94477.50;;;17.03;40.28
30819;BME280;17546;42.674;23.284;2022-12-08T11:35:48;94479.50;;;17.16;40.51
30819;BME280;17546;42.674;23.284;2022-12-08T11:38:17;94475.47;;;17.04;40.35
30819;BME280;17546;42.674;23.284;2022-12-08T11:40:57;94474.97;;;17.13;40.34
30819;BME280;17546;42.674;23.284;2022-12-08T11:46:12;94476.34;;;16.64;41.14
30819;BME280;17546;42.674;23.284;2022-12-08T11:49:03;94471.19;;;16.68;41.17
30819;BME280;17546;42.674;23.284;2022-12-08T11:51:39;94476.94;;;17.26;40.10
30819;BME280;17546;42.674;23.284;2022-12-08T11:54:25;94471.78;;;17.59;39.98
30819;BME280;17546;42.674;23.284;2022-12-08T11:56:57;94460.47;;;17.72;39.83
30819;BME280;17546;42.674;23.284;2022-12-08T11:59:36;94461.28;;;17.80;39.70
30819;BME280;17546;42.674;23.284;2022-12-08T12:02:04;94471.41;;;17.83;39.53
30819;BME280;17546;42.674;23.284;2022-12-08T12:04:54;94464.06;;;17.02;40.77
30819;BME280;17546;42.674;23.284;2022-12-08T12:18:31;94463.66;;;17.76;39.65
30819;BME280;17546;42.674;23.284;2022-12-08T12:21:24;94467.22;;;17.76;39.60
30819;BME280;17546;42.674;23.284;2022-12-08T12:23:55;94470.13;;;17.92;39.64
30819;BME280;17546;42.674;23.284;2022-12-08T12:26:23;94451.56;;;17.81;39.36
30819;BME280;17546;42.674;23.284;2022-12-08T12:28:57;94451.00;;;17.46;39.66
30819;BME280;17546;42.674;23.284;2022-12-08T12:31:36;94445.09;;;17.58;39.98
30819;BME280;17546;42.674;23.284;2022-12-08T12:34:10;94453.41;;;17.79;39.77
30819;BME280;17546;42.674;23.284;2022-12-08T12:39:22;94447.19;;;17.93;39.50
30819;BME280;17546;42.674;23.284;2022-12-08T12:41:52;94439.31;;;17.92;39.45
30819;BME280;17546;42.674;23.284;2022-12-08T12:46:56;94442.00;;;17.76;39.49
30819;BME280;17546;42.674;23.284;2022-12-08T12:57:14;94432.06;;;17.68;39.80
30819;BME280;17546;42.674;23.284;2022-12-08T13:04:59;94428.31;;;17.65;39.89
30819;BME280;17546;42.674;23.284;2022-12-08T13:07:32;94424.63;;;17.70;40.18
30819;BME280;17546;42.674;23.284;2022-12-08T13:12:31;94426.84;;;17.72;39.63
30819;BME280;17546;42.674;23.284;2022-12-08T13:15:03;94420.31;;;17.69;39.87
30819;BME280;17546;42.674;23.284;2022-12-08T13:17:31;94422.00;;;17.72;39.84
30819;BME280;17546;42.674;23.284;2022-12-08T13:20:00;94417.28;;;17.88;39.94
30819;BME280;17546;42.674;23.284;2022-12-08T13:25:43;94420.69;;;18.02;39.63
30819;BME280;17546;42.674;23.284;2022-12-08T13:33:28;94420.84;;;17.96;39.93
30819;BME280;17546;42.674;23.284;2022-12-08T13:36:00;94421.16;;;17.85;39.64
30819;BME280;17546;42.674;23.284;2022-12-08T13:38:30;94422.75;;;18.02;39.52
30819;BME280;17546;42.674;23.284;2022-12-08T13:41:00;94414.47;;;17.88;39.58
30819;BME280;17546;42.674;23.284;2022-12-08T13:45:59;94412.50;;;18.12;39.50
30819;BME280;17546;42.674;23.284;2022-12-08T13:48:39;94413.81;;;18.18;39.51
30819;BME280;17546;42.674;23.284;2022-12-08T13:51:25;94417.34;;;18.11;39.55
30819;BME280;17546;42.674;23.284;2022-12-08T13:54:05;94421.28;;;18.16;39.72
30819;BME280;17546;42.674;23.284;2022-12-08T13:56:38;94420.41;;;18.21;39.63
30819;BME280;17546;42.674;23.284;2022-12-08T14:01:49;94435.69;;;18.20;39.68
30819;BME280;17546;42.674;23.284;2022-12-08T14:04:17;94441.16;;;17.82;39.94
30819;BME280;17546;42.674;23.284;2022-12-08T14:06:48;94413.56;;;17.07;41.18
30819;BME280;17546;42.674;23.284;2022-12-08T14:09:18;94395.47;;;17.08;41.67
30819;BME280;17546;42.674;23.284;2022-12-08T14:11:57;94417.50;;;17.33;41.32
30819;BME280;17546;42.674;23.284;2022-12-08T14:14:37;94430.03;;;17.40;41.12
30819;BME280;17546;42.674;23.284;2022-12-08T14:17:08;94424.56;;;17.63;40.78
30819;BME280;17546;42.674;23.284;2022-12-08T14:19:42;94428.91;;;17.71;40.55
30819;BME280;17546;42.674;23.284;2022-12-08T14:22:16;94431.19;;;17.44;40.78
30819;BME280;17546;42.674;23.284;2022-12-08T14:24:50;94420.13;;;17.39;41.12
30819;BME280;17546;42.674;23.284;2022-12-08T14:27:24;94435.16;;;17.56;40.73
30819;BME280;17546;42.674;23.284;2022-12-08T14:30:02;94434.31;;;17.69;40.79
30819;BME280;17546;42.674;23.284;2022-12-08T14:37:37;94417.41;;;17.46;40.87
30819;BME280;17546;42.674;23.284;2022-12-08T14:40:15;94419.31;;;17.59;40.88
30819;BME280;17546;42.674;23.284;2022-12-08T14:45:15;94407.16;;;17.56;41.00
30819;BME280;17546;42.674;23.284;2022-12-08T14:47:41;94415.03;;;17.87;40.58